Khudzhand, Tajikistan
Current Conditions -  °F | °C
As of 6:30 AM on Saturday 20 Dec 2014 (Local Time) from UTDL Reporting Station
Haze Haze  
Wind Chill: 27°   Ceiling: 20000
Heat Index: 36°   Visibility: 2.3mi
Dew Point: 25°   Wind: 13mph
Humidity: 65%   Direction: 80°E
Pressure: 30.27"   Gusts: NA
Location:  40.29°N, 69.63°E
Report Text: UTDL 200130Z 08006MPS 3700 BR SCT150 OVC200 02/M04 Q1025 TEMPO1000 BR RMK QFE730/0973 88CLRD70
Loading
Personal Weather Stations






























Interactive Weather Map New forecast layout! Learn more

10-Day Weather Forecast

Advertisements
Track Severe Weather on mobile